sensor_id;sensor_type;location;lat;lon;timestamp;P1;durP1;ratioP1;P2;durP2;ratioP2
4353;SDS011;11018;51.258;6.806;2023-02-28T00:00:12;13.85;;;6.93;;
4353;SDS011;11018;51.258;6.806;2023-02-28T00:02:39;10.13;;;6.57;;
4353;SDS011;11018;51.258;6.806;2023-02-28T00:05:07;15.27;;;6.82;;
4353;SDS011;11018;51.258;6.806;2023-02-28T00:07:34;13.23;;;7.35;;
4353;SDS011;11018;51.258;6.806;2023-02-28T00:10:00;11.27;;;7.70;;
4353;SDS011;11018;51.258;6.806;2023-02-28T00:12:25;16.63;;;8.40;;
4353;SDS011;11018;51.258;6.806;2023-02-28T00:14:51;15.48;;;8.68;;
4353;SDS011;11018;51.258;6.806;2023-02-28T00:17:17;14.30;;;8.13;;
4353;SDS011;11018;51.258;6.806;2023-02-28T00:19:45;15.27;;;8.30;;
4353;SDS011;11018;51.258;6.806;2023-02-28T00:22:12;15.88;;;7.63;;
4353;SDS011;11018;51.258;6.806;2023-02-28T00:24:38;15.05;;;7.50;;
4353;SDS011;11018;51.258;6.806;2023-02-28T00:27:03;12.77;;;7.73;;
4353;SDS011;11018;51.258;6.806;2023-02-28T00:29:29;17.03;;;7.83;;
4353;SDS011;11018;51.258;6.806;2023-02-28T00:31:54;14.40;;;7.50;;
4353;SDS011;11018;51.258;6.806;2023-02-28T00:34:20;14.02;;;8.23;;
4353;SDS011;11018;51.258;6.806;2023-02-28T00:36:45;16.80;;;8.18;;
4353;SDS011;11018;51.258;6.806;2023-02-28T00:39:13;12.70;;;7.30;;
4353;SDS011;11018;51.258;6.806;2023-02-28T00:41:39;15.93;;;7.38;;
4353;SDS011;11018;51.258;6.806;2023-02-28T00:44:05;11.50;;;7.20;;
4353;SDS011;11018;51.258;6.806;2023-02-28T00:46:30;12.00;;;6.70;;
4353;SDS011;11018;51.258;6.806;2023-02-28T00:48:56;13.13;;;6.93;;
4353;SDS011;11018;51.258;6.806;2023-02-28T00:51:21;8.00;;;5.90;;
4353;SDS011;11018;51.258;6.806;2023-02-28T00:53:47;12.25;;;7.05;;
4353;SDS011;11018;51.258;6.806;2023-02-28T00:56:12;10.02;;;5.97;;
4353;SDS011;11018;51.258;6.806;2023-02-28T00:58:38;14.90;;;6.50;;
4353;SDS011;11018;51.258;6.806;2023-02-28T01:01:04;11.20;;;6.70;;
4353;SDS011;11018;51.258;6.806;2023-02-28T01:03:30;10.67;;;6.53;;
4353;SDS011;11018;51.258;6.806;2023-02-28T01:05:55;10.63;;;6.50;;
4353;SDS011;11018;51.258;6.806;2023-02-28T01:08:21;9.63;;;6.10;;
4353;SDS011;11018;51.258;6.806;2023-02-28T01:10:47;10.60;;;6.00;;
4353;SDS011;11018;51.258;6.806;2023-02-28T01:13:13;12.40;;;6.50;;
4353;SDS011;11018;51.258;6.806;2023-02-28T01:15:40;12.32;;;6.70;;
4353;SDS011;11018;51.258;6.806;2023-02-28T01:18:09;12.60;;;6.20;;
4353;SDS011;11018;51.258;6.806;2023-02-28T01:20:36;13.85;;;7.47;;
4353;SDS011;11018;51.258;6.806;2023-02-28T01:23:02;11.82;;;7.00;;
4353;SDS011;11018;51.258;6.806;2023-02-28T01:25:27;14.90;;;6.97;;
4353;SDS011;11018;51.258;6.806;2023-02-28T01:27:53;14.23;;;7.10;;
4353;SDS011;11018;51.258;6.806;2023-02-28T01:30:19;13.80;;;7.30;;
4353;SDS011;11018;51.258;6.806;2023-02-28T01:32:44;12.50;;;7.00;;
4353;SDS011;11018;51.258;6.806;2023-02-28T01:35:10;14.23;;;7.13;;
4353;SDS011;11018;51.258;6.806;2023-02-28T01:37:36;15.52;;;7.78;;
4353;SDS011;11018;51.258;6.806;2023-02-28T01:40:01;10.23;;;6.87;;
4353;SDS011;11018;51.258;6.806;2023-02-28T01:42:27;17.45;;;8.00;;
4353;SDS011;11018;51.258;6.806;2023-02-28T01:45:00;13.60;;;7.40;;
4353;SDS011;11018;51.258;6.806;2023-02-28T01:47:43;11.77;;;7.35;;
4353;SDS011;11018;51.258;6.806;2023-02-28T01:50:12;13.15;;;7.60;;
4353;SDS011;11018;51.258;6.806;2023-02-28T01:52:44;11.98;;;7.70;;
4353;SDS011;11018;51.258;6.806;2023-02-28T01:55:11;15.10;;;7.00;;
4353;SDS011;11018;51.258;6.806;2023-02-28T01:57:38;14.53;;;7.27;;
4353;SDS011;11018;51.258;6.806;2023-02-28T02:00:09;12.85;;;7.57;;
4353;SDS011;11018;51.258;6.806;2023-02-28T02:02:38;11.18;;;7.43;;
4353;SDS011;11018;51.258;6.806;2023-02-28T02:05:16;12.70;;;7.57;;
4353;SDS011;11018;51.258;6.806;2023-02-28T02:07:44;13.02;;;7.65;;
4353;SDS011;11018;51.258;6.806;2023-02-28T02:10:13;13.20;;;7.50;;
4353;SDS011;11018;51.258;6.806;2023-02-28T02:15:11;12.43;;;7.33;;
4353;SDS011;11018;51.258;6.806;2023-02-28T02:17:44;17.38;;;7.88;;
4353;SDS011;11018;51.258;6.806;2023-02-28T02:36:38;13.60;;;7.45;;
4353;SDS011;11018;51.258;6.806;2023-02-28T02:41:59;12.55;;;7.13;;
4353;SDS011;11018;51.258;6.806;2023-02-28T02:44:37;12.80;;;7.40;;
4353;SDS011;11018;51.258;6.806;2023-02-28T02:47:18;14.13;;;7.50;;
4353;SDS011;11018;51.258;6.806;2023-02-28T02:49:51;17.38;;;8.48;;
4353;SDS011;11018;51.258;6.806;2023-02-28T02:52:20;15.32;;;8.10;;
4353;SDS011;11018;51.258;6.806;2023-02-28T02:54:50;14.95;;;7.80;;
4353;SDS011;11018;51.258;6.806;2023-02-28T02:57:26;15.75;;;7.80;;
4353;SDS011;11018;51.258;6.806;2023-02-28T02:59:56;13.45;;;7.63;;
4353;SDS011;11018;51.258;6.806;2023-02-28T03:02:23;12.52;;;7.43;;
4353;SDS011;11018;51.258;6.806;2023-02-28T03:04:56;15.80;;;8.25;;
4353;SDS011;11018;51.258;6.806;2023-02-28T03:07:25;14.95;;;8.30;;
4353;SDS011;11018;51.258;6.806;2023-02-28T03:09:52;14.07;;;7.65;;
4353;SDS011;11018;51.258;6.806;2023-02-28T03:12:18;18.00;;;7.90;;
4353;SDS011;11018;51.258;6.806;2023-02-28T03:14:51;12.20;;;7.50;;
4353;SDS011;11018;51.258;6.806;2023-02-28T03:26:16;11.73;;;7.70;;
4353;SDS011;11018;51.258;6.806;2023-02-28T03:33:55;17.13;;;8.50;;
4353;SDS011;11018;51.258;6.806;2023-02-28T03:36:36;12.40;;;7.25;;
4353;SDS011;11018;51.258;6.806;2023-02-28T03:39:08;11.70;;;6.65;;
4353;SDS011;11018;51.258;6.806;2023-02-28T03:44:16;13.93;;;8.30;;
4353;SDS011;11018;51.258;6.806;2023-02-28T03:46:48;10.30;;;7.15;;
4353;SDS011;11018;51.258;6.806;2023-02-28T03:49:28;12.45;;;7.60;;
4353;SDS011;11018;51.258;6.806;2023-02-28T03:52:10;13.88;;;7.13;;
4353;SDS011;11018;51.258;6.806;2023-02-28T03:54:38;12.70;;;7.70;;
4353;SDS011;11018;51.258;6.806;2023-02-28T03:57:15;11.75;;;7.80;;
4353;SDS011;11018;51.258;6.806;2023-02-28T03:59:49;12.65;;;6.60;;
4353;SDS011;11018;51.258;6.806;2023-02-28T04:02:22;14.38;;;7.72;;
4353;SDS011;11018;51.258;6.806;2023-02-28T04:04:48;11.20;;;6.90;;
4353;SDS011;11018;51.258;6.806;2023-02-28T04:07:14;11.77;;;7.30;;
4353;SDS011;11018;51.258;6.806;2023-02-28T04:09:41;10.15;;;7.00;;
4353;SDS011;11018;51.258;6.806;2023-02-28T04:12:06;10.75;;;6.60;;
4353;SDS011;11018;51.258;6.806;2023-02-28T04:14:32;10.40;;;7.00;;
4353;SDS011;11018;51.258;6.806;2023-02-28T04:16:58;12.40;;;7.43;;
4353;SDS011;11018;51.258;6.806;2023-02-28T04:19:23;10.93;;;6.87;;
4353;SDS011;11018;51.258;6.806;2023-02-28T04:21:50;12.63;;;6.87;;
4353;SDS011;11018;51.258;6.806;2023-02-28T04:24:18;12.20;;;6.57;;
4353;SDS011;11018;51.258;6.806;2023-02-28T04:26:46;14.05;;;7.07;;
4353;SDS011;11018;51.258;6.806;2023-02-28T04:29:14;10.70;;;6.80;;
4353;SDS011;11018;51.258;6.806;2023-02-28T04:31:44;12.05;;;7.10;;
4353;SDS011;11018;51.258;6.806;2023-02-28T04:34:10;12.80;;;6.50;;
4353;SDS011;11018;51.258;6.806;2023-02-28T04:36:35;12.05;;;6.80;;
4353;SDS011;11018;51.258;6.806;2023-02-28T04:39:01;13.77;;;6.70;;
4353;SDS011;11018;51.258;6.806;2023-02-28T04:41:26;11.20;;;6.47;;
4353;SDS011;11018;51.258;6.806;2023-02-28T04:43:52;13.05;;;6.68;;
4353;SDS011;11018;51.258;6.806;2023-02-28T04:46:17;12.23;;;7.20;;
4353;SDS011;11018;51.258;6.806;2023-02-28T04:48:44;10.25;;;6.88;;
4353;SDS011;11018;51.258;6.806;2023-02-28T04:51:11;11.80;;;6.70;;
4353;SDS011;11018;51.258;6.806;2023-02-28T04:53:39;14.43;;;6.88;;
4353;SDS011;11018;51.258;6.806;2023-02-28T04:56:06;16.23;;;6.70;;
4353;SDS011;11018;51.258;6.806;2023-02-28T04:58:33;11.63;;;6.80;;
4353;SDS011;11018;51.258;6.806;2023-02-28T05:01:03;12.43;;;6.80;;
4353;SDS011;11018;51.258;6.806;2023-02-28T05:03:37;8.47;;;5.97;;
4353;SDS011;11018;51.258;6.806;2023-02-28T05:06:06;9.40;;;5.78;;
4353;SDS011;11018;51.258;6.806;2023-02-28T05:08:33;9.85;;;5.80;;
4353;SDS011;11018;51.258;6.806;2023-02-28T05:10:58;8.75;;;5.68;;
4353;SDS011;11018;51.258;6.806;2023-02-28T05:13:25;10.73;;;6.20;;
4353;SDS011;11018;51.258;6.806;2023-02-28T05:15:51;7.07;;;5.20;;
4353;SDS011;11018;51.258;6.806;2023-02-28T05:18:17;13.95;;;5.72;;
4353;SDS011;11018;51.258;6.806;2023-02-28T05:20:42;9.87;;;6.23;;
4353;SDS011;11018;51.258;6.806;2023-02-28T05:23:09;10.20;;;6.13;;
4353;SDS011;11018;51.258;6.806;2023-02-28T05:25:37;10.32;;;6.32;;
4353;SDS011;11018;51.258;6.806;2023-02-28T05:28:03;8.40;;;5.65;;
4353;SDS011;11018;51.258;6.806;2023-02-28T05:30:29;8.50;;;6.40;;
4353;SDS011;11018;51.258;6.806;2023-02-28T05:32:56;10.15;;;6.90;;
4353;SDS011;11018;51.258;6.806;2023-02-28T05:35:22;9.30;;;6.43;;
4353;SDS011;11018;51.258;6.806;2023-02-28T05:37:48;12.23;;;7.60;;
4353;SDS011;11018;51.258;6.806;2023-02-28T05:40:13;13.37;;;6.87;;
4353;SDS011;11018;51.258;6.806;2023-02-28T05:42:40;11.38;;;6.20;;
4353;SDS011;11018;51.258;6.806;2023-02-28T05:45:06;9.40;;;6.50;;
4353;SDS011;11018;51.258;6.806;2023-02-28T05:47:32;9.98;;;6.65;;
4353;SDS011;11018;51.258;6.806;2023-02-28T05:49:58;10.82;;;6.50;;
4353;SDS011;11018;51.258;6.806;2023-02-28T05:52:24;12.77;;;6.70;;
4353;SDS011;11018;51.258;6.806;2023-02-28T05:54:50;9.43;;;6.00;;
4353;SDS011;11018;51.258;6.806;2023-02-28T05:57:16;9.60;;;5.97;;
4353;SDS011;11018;51.258;6.806;2023-02-28T05:59:41;10.17;;;6.50;;
4353;SDS011;11018;51.258;6.806;2023-02-28T06:02:14;10.73;;;6.50;;
4353;SDS011;11018;51.258;6.806;2023-02-28T06:04:42;11.52;;;6.35;;
4353;SDS011;11018;51.258;6.806;2023-02-28T06:07:08;8.77;;;6.13;;
4353;SDS011;11018;51.258;6.806;2023-02-28T06:09:34;10.48;;;6.35;;
4353;SDS011;11018;51.258;6.806;2023-02-28T06:12:01;11.68;;;6.00;;
4353;SDS011;11018;51.258;6.806;2023-02-28T06:14:30;9.18;;;5.70;;
4353;SDS011;11018;51.258;6.806;2023-02-28T06:16:57;11.07;;;6.20;;
4353;SDS011;11018;51.258;6.806;2023-02-28T06:19:23;12.07;;;6.25;;
4353;SDS011;11018;51.258;6.806;2023-02-28T06:21:50;8.13;;;5.90;;
4353;SDS011;11018;51.258;6.806;2023-02-28T06:24:20;10.82;;;6.10;;
4353;SDS011;11018;51.258;6.806;2023-02-28T06:26:46;12.90;;;5.95;;
4353;SDS011;11018;51.258;6.806;2023-02-28T06:29:12;8.33;;;5.57;;
4353;SDS011;11018;51.258;6.806;2023-02-28T06:31:38;9.10;;;5.80;;
4353;SDS011;11018;51.258;6.806;2023-02-28T06:34:03;15.20;;;5.60;;
4353;SDS011;11018;51.258;6.806;2023-02-28T06:36:29;11.95;;;5.75;;
4353;SDS011;11018;51.258;6.806;2023-02-28T06:38:55;9.90;;;5.70;;
4353;SDS011;11018;51.258;6.806;2023-02-28T06:41:24;7.43;;;5.20;;
4353;SDS011;11018;51.258;6.806;2023-02-28T06:43:50;8.30;;;5.80;;
4353;SDS011;11018;51.258;6.806;2023-02-28T06:46:16;7.82;;;5.75;;
4353;SDS011;11018;51.258;6.806;2023-02-28T06:48:43;9.40;;;5.88;;
4353;SDS011;11018;51.258;6.806;2023-02-28T06:51:17;10.13;;;5.50;;
4353;SDS011;11018;51.258;6.806;2023-02-28T06:53:45;7.05;;;5.50;;
4353;SDS011;11018;51.258;6.806;2023-02-28T06:56:12;8.20;;;5.20;;
4353;SDS011;11018;51.258;6.806;2023-02-28T06:58:39;10.18;;;6.00;;
4353;SDS011;11018;51.258;6.806;2023-02-28T07:01:06;7.63;;;5.60;;
4353;SDS011;11018;51.258;6.806;2023-02-28T07:03:32;12.18;;;5.30;;
4353;SDS011;11018;51.258;6.806;2023-02-28T07:05:59;6.57;;;5.32;;
4353;SDS011;11018;51.258;6.806;2023-02-28T07:08:26;9.88;;;5.85;;
4353;SDS011;11018;51.258;6.806;2023-02-28T07:10:52;8.88;;;5.47;;
4353;SDS011;11018;51.258;6.806;2023-02-28T07:13:19;9.70;;;5.53;;
4353;SDS011;11018;51.258;6.806;2023-02-28T07:15:44;9.00;;;5.10;;
4353;SDS011;11018;51.258;6.806;2023-02-28T07:18:24;11.75;;;5.10;;
4353;SDS011;11018;51.258;6.806;2023-02-28T07:20:50;8.63;;;5.45;;
4353;SDS011;11018;51.258;6.806;2023-02-28T07:23:16;8.57;;;5.30;;
4353;SDS011;11018;51.258;6.806;2023-02-28T07:25:42;6.95;;;5.05;;
4353;SDS011;11018;51.258;6.806;2023-02-28T07:28:08;12.70;;;5.05;;
4353;SDS011;11018;51.258;6.806;2023-02-28T07:30:33;6.55;;;4.80;;
4353;SDS011;11018;51.258;6.806;2023-02-28T07:32:59;11.97;;;6.20;;
4353;SDS011;11018;51.258;6.806;2023-02-28T07:35:24;8.10;;;5.80;;
4353;SDS011;11018;51.258;6.806;2023-02-28T07:37:50;9.80;;;4.87;;
4353;SDS011;11018;51.258;6.806;2023-02-28T07:40:16;6.47;;;4.82;;
4353;SDS011;11018;51.258;6.806;2023-02-28T07:42:42;8.85;;;4.88;;
4353;SDS011;11018;51.258;6.806;2023-02-28T07:45:08;4.95;;;4.30;;
4353;SDS011;11018;51.258;6.806;2023-02-28T07:47:36;6.60;;;4.40;;
4353;SDS011;11018;51.258;6.806;2023-02-28T07:50:06;9.57;;;4.90;;
4353;SDS011;11018;51.258;6.806;2023-02-28T07:52:33;10.32;;;4.40;;
4353;SDS011;11018;51.258;6.806;2023-02-28T07:54:59;8.00;;;5.10;;
4353;SDS011;11018;51.258;6.806;2023-02-28T07:57:25;7.50;;;4.07;;
4353;SDS011;11018;51.258;6.806;2023-02-28T07:59:50;7.53;;;4.70;;
4353;SDS011;11018;51.258;6.806;2023-02-28T08:02:16;7.15;;;4.57;;
4353;SDS011;11018;51.258;6.806;2023-02-28T08:04:43;6.70;;;4.28;;
4353;SDS011;11018;51.258;6.806;2023-02-28T08:07:09;7.20;;;4.20;;
4353;SDS011;11018;51.258;6.806;2023-02-28T08:09:37;7.30;;;4.43;;
4353;SDS011;11018;51.258;6.806;2023-02-28T08:12:04;5.60;;;4.20;;
4353;SDS011;11018;51.258;6.806;2023-02-28T08:14:29;8.23;;;4.93;;
4353;SDS011;11018;51.258;6.806;2023-02-28T08:16:55;5.87;;;4.10;;
4353;SDS011;11018;51.258;6.806;2023-02-28T08:19:20;8.23;;;4.10;;
4353;SDS011;11018;51.258;6.806;2023-02-28T08:21:46;6.27;;;3.90;;
4353;SDS011;11018;51.258;6.806;2023-02-28T08:24:11;5.90;;;4.20;;
4353;SDS011;11018;51.258;6.806;2023-02-28T08:26:37;6.18;;;4.22;;
4353;SDS011;11018;51.258;6.806;2023-02-28T08:29:02;7.32;;;4.10;;
4353;SDS011;11018;51.258;6.806;2023-02-28T08:31:28;5.67;;;3.80;;
4353;SDS011;11018;51.258;6.806;2023-02-28T08:33:54;5.40;;;3.40;;
4353;SDS011;11018;51.258;6.806;2023-02-28T08:36:21;5.82;;;3.35;;
4353;SDS011;11018;51.258;6.806;2023-02-28T08:38:48;6.00;;;4.10;;
4353;SDS011;11018;51.258;6.806;2023-02-28T08:41:14;10.27;;;5.50;;
4353;SDS011;11018;51.258;6.806;2023-02-28T08:43:40;8.40;;;4.20;;
4353;SDS011;11018;51.258;6.806;2023-02-28T08:46:10;6.53;;;3.97;;
4353;SDS011;11018;51.258;6.806;2023-02-28T08:48:38;7.20;;;3.70;;
4353;SDS011;11018;51.258;6.806;2023-02-28T08:51:05;7.22;;;3.60;;
4353;SDS011;11018;51.258;6.806;2023-02-28T08:53:34;11.80;;;3.70;;
4353;SDS011;11018;51.258;6.806;2023-02-28T08:56:02;9.00;;;3.90;;
4353;SDS011;11018;51.258;6.806;2023-02-28T08:58:29;4.95;;;3.20;;
4353;SDS011;11018;51.258;6.806;2023-02-28T09:00:55;5.72;;;3.20;;
4353;SDS011;11018;51.258;6.806;2023-02-28T09:03:21;7.77;;;4.20;;
4353;SDS011;11018;51.258;6.806;2023-02-28T09:05:57;4.63;;;2.97;;
4353;SDS011;11018;51.258;6.806;2023-02-28T09:08:24;4.88;;;2.65;;
4353;SDS011;11018;51.258;6.806;2023-02-28T09:10:51;3.90;;;2.88;;
4353;SDS011;11018;51.258;6.806;2023-02-28T09:13:17;5.33;;;2.90;;
4353;SDS011;11018;51.258;6.806;2023-02-28T09:15:43;4.35;;;2.90;;
4353;SDS011;11018;51.258;6.806;2023-02-28T09:18:09;4.50;;;3.22;;
4353;SDS011;11018;51.258;6.806;2023-02-28T09:20:39;4.40;;;2.50;;
4353;SDS011;11018;51.258;6.806;2023-02-28T09:23:06;6.33;;;2.90;;
4353;SDS011;11018;51.258;6.806;2023-02-28T09:25:33;3.92;;;2.80;;
4353;SDS011;11018;51.258;6.806;2023-02-28T09:27:58;3.13;;;2.78;;
4353;SDS011;11018;51.258;6.806;2023-02-28T09:30:24;4.43;;;2.53;;
4353;SDS011;11018;51.258;6.806;2023-02-28T09:32:49;3.20;;;2.60;;
4353;SDS011;11018;51.258;6.806;2023-02-28T09:35:19;4.80;;;3.47;;
4353;SDS011;11018;51.258;6.806;2023-02-28T09:37:45;3.88;;;2.80;;
4353;SDS011;11018;51.258;6.806;2023-02-28T09:40:12;3.03;;;2.73;;
4353;SDS011;11018;51.258;6.806;2023-02-28T09:42:39;2.70;;;2.50;;
4353;SDS011;11018;51.258;6.806;2023-02-28T09:45:13;5.47;;;3.10;;
4353;SDS011;11018;51.258;6.806;2023-02-28T09:47:49;3.65;;;3.10;;
4353;SDS011;11018;51.258;6.806;2023-02-28T09:50:18;3.30;;;2.70;;
4353;SDS011;11018;51.258;6.806;2023-02-28T09:55:59;4.30;;;2.90;;
4353;SDS011;11018;51.258;6.806;2023-02-28T09:58:28;7.20;;;2.90;;
4353;SDS011;11018;51.258;6.806;2023-02-28T10:01:21;4.35;;;3.10;;
4353;SDS011;11018;51.258;6.806;2023-02-28T10:06:46;3.45;;;2.80;;
4353;SDS011;11018;51.258;6.806;2023-02-28T10:11:50;3.95;;;2.80;;
4353;SDS011;11018;51.258;6.806;2023-02-28T10:14:18;3.33;;;2.83;;
4353;SDS011;11018;51.258;6.806;2023-02-28T10:19:53;6.03;;;3.55;;
4353;SDS011;11018;51.258;6.806;2023-02-28T10:22:32;5.90;;;3.10;;
4353;SDS011;11018;51.258;6.806;2023-02-28T10:25:05;3.00;;;2.35;;
4353;SDS011;11018;51.258;6.806;2023-02-28T10:27:45;3.00;;;2.60;;
4353;SDS011;11018;51.258;6.806;2023-02-28T10:30:10;5.97;;;3.43;;
4353;SDS011;11018;51.258;6.806;2023-02-28T10:32:38;4.82;;;2.95;;
4353;SDS011;11018;51.258;6.806;2023-02-28T10:35:15;6.78;;;3.38;;
4353;SDS011;11018;51.258;6.806;2023-02-28T10:37:59;3.83;;;3.10;;
4353;SDS011;11018;51.258;6.806;2023-02-28T10:40:34;5.13;;;3.30;;
4353;SDS011;11018;51.258;6.806;2023-02-28T10:43:04;3.50;;;2.90;;
4353;SDS011;11018;51.258;6.806;2023-02-28T10:45:57;2.70;;;2.50;;
4353;SDS011;11018;51.258;6.806;2023-02-28T10:48:30;4.13;;;2.55;;
4353;SDS011;11018;51.258;6.806;2023-02-28T10:50:59;5.28;;;2.60;;
4353;SDS011;11018;51.258;6.806;2023-02-28T10:53:45;3.60;;;2.50;;
4353;SDS011;11018;51.258;6.806;2023-02-28T10:56:20;2.70;;;2.22;;
4353;SDS011;11018;51.258;6.806;2023-02-28T11:01:42;4.67;;;2.60;;
4353;SDS011;11018;51.258;6.806;2023-02-28T11:04:17;3.17;;;2.42;;
4353;SDS011;11018;51.258;6.806;2023-02-28T11:07:39;4.10;;;2.50;;
4353;SDS011;11018;51.258;6.806;2023-02-28T11:09:48;3.20;;;2.50;;
4353;SDS011;11018;51.258;6.806;2023-02-28T11:12:23;4.97;;;2.65;;
4353;SDS011;11018;51.258;6.806;2023-02-28T11:14:52;6.18;;;2.97;;
4353;SDS011;11018;51.258;6.806;2023-02-28T11:17:20;4.43;;;2.60;;
4353;SDS011;11018;51.258;6.806;2023-02-28T11:19:50;3.22;;;2.58;;
4353;SDS011;11018;51.258;6.806;2023-02-28T11:22:19;6.90;;;2.80;;
4353;SDS011;11018;51.258;6.806;2023-02-28T11:24:47;4.95;;;2.65;;
4353;SDS011;11018;51.258;6.806;2023-02-28T11:29:57;7.50;;;2.90;;
4353;SDS011;11018;51.258;6.806;2023-02-28T11:32:24;6.13;;;2.50;;
4353;SDS011;11018;51.258;6.806;2023-02-28T11:35:14;3.33;;;2.50;;
4353;SDS011;11018;51.258;6.806;2023-02-28T11:37:41;3.50;;;2.30;;
4353;SDS011;11018;51.258;6.806;2023-02-28T11:40:21;3.40;;;3.00;;
4353;SDS011;11018;51.258;6.806;2023-02-28T11:42:55;3.90;;;2.70;;
4353;SDS011;11018;51.258;6.806;2023-02-28T11:51:00;3.42;;;2.40;;
4353;SDS011;11018;51.258;6.806;2023-02-28T12:10:26;5.63;;;3.10;;
4353;SDS011;11018;51.258;6.806;2023-02-28T12:18:11;5.78;;;2.60;;
4353;SDS011;11018;51.258;6.806;2023-02-28T12:21:04;7.43;;;3.00;;
4353;SDS011;11018;51.258;6.806;2023-02-28T12:26:54;7.15;;;3.45;;
4353;SDS011;11018;51.258;6.806;2023-02-28T12:29:26;4.90;;;2.83;;
4353;SDS011;11018;51.258;6.806;2023-02-28T12:35:02;4.63;;;3.20;;
4353;SDS011;11018;51.258;6.806;2023-02-28T12:37:50;3.42;;;2.80;;
4353;SDS011;11018;51.258;6.806;2023-02-28T12:40:30;6.30;;;2.88;;
4353;SDS011;11018;51.258;6.806;2023-02-28T12:43:11;3.47;;;3.17;;
4353;SDS011;11018;51.258;6.806;2023-02-28T12:48:40;8.93;;;5.05;;
4353;SDS011;11018;51.258;6.806;2023-02-28T12:51:08;4.72;;;3.05;;
4353;SDS011;11018;51.258;6.806;2023-02-28T12:53:50;8.20;;;3.20;;
4353;SDS011;11018;51.258;6.806;2023-02-28T12:56:42;5.63;;;2.92;;
4353;SDS011;11018;51.258;6.806;2023-02-28T13:10:05;5.90;;;2.90;;
4353;SDS011;11018;51.258;6.806;2023-02-28T13:12:32;5.72;;;3.10;;
4353;SDS011;11018;51.258;6.806;2023-02-28T13:15:18;4.13;;;2.70;;
4353;SDS011;11018;51.258;6.806;2023-02-28T13:17:49;6.47;;;3.47;;
4353;SDS011;11018;51.258;6.806;2023-02-28T13:20:19;5.25;;;3.28;;
4353;SDS011;11018;51.258;6.806;2023-02-28T13:22:53;6.13;;;2.80;;
4353;SDS011;11018;51.258;6.806;2023-02-28T13:28:10;5.65;;;3.22;;
4353;SDS011;11018;51.258;6.806;2023-02-28T13:44:20;5.72;;;3.05;;
4353;SDS011;11018;51.258;6.806;2023-02-28T13:49:23;3.30;;;3.00;;
4353;SDS011;11018;51.258;6.806;2023-02-28T13:51:53;6.00;;;3.20;;
4353;SDS011;11018;51.258;6.806;2023-02-28T13:54:34;4.93;;;3.10;;
4353;SDS011;11018;51.258;6.806;2023-02-28T13:57:24;6.28;;;3.55;;
4353;SDS011;11018;51.258;6.806;2023-02-28T14:09:16;6.75;;;3.33;;
4353;SDS011;11018;51.258;6.806;2023-02-28T14:11:46;4.35;;;3.00;;
4353;SDS011;11018;51.258;6.806;2023-02-28T14:14:52;6.97;;;3.67;;
4353;SDS011;11018;51.258;6.806;2023-02-28T14:17:14;3.75;;;3.45;;
4353;SDS011;11018;51.258;6.806;2023-02-28T14:19:43;5.82;;;3.70;;
4353;SDS011;11018;51.258;6.806;2023-02-28T14:25:00;4.70;;;3.17;;
4353;SDS011;11018;51.258;6.806;2023-02-28T14:36:53;4.30;;;3.40;;
4353;SDS011;11018;51.258;6.806;2023-02-28T14:39:11;6.10;;;3.50;;
4353;SDS011;11018;51.258;6.806;2023-02-28T14:41:43;5.85;;;4.03;;
4353;SDS011;11018;51.258;6.806;2023-02-28T14:44:14;5.43;;;3.60;;
4353;SDS011;11018;51.258;6.806;2023-02-28T14:46:46;4.60;;;3.45;;
4353;SDS011;11018;51.258;6.806;2023-02-28T14:49:19;4.55;;;3.30;;
4353;SDS011;11018;51.258;6.806;2023-02-28T14:55:10;5.05;;;3.60;;
4353;SDS011;11018;51.258;6.806;2023-02-28T14:57:50;6.70;;;3.70;;
4353;SDS011;11018;51.258;6.806;2023-02-28T15:00:22;5.65;;;3.53;;
4353;SDS011;11018;51.258;6.806;2023-02-28T15:02:50;7.88;;;3.60;;
4353;SDS011;11018;51.258;6.806;2023-02-28T15:05:26;5.25;;;3.63;;
4353;SDS011;11018;51.258;6.806;2023-02-28T15:10:38;5.82;;;3.75;;
4353;SDS011;11018;51.258;6.806;2023-02-28T15:13:11;5.43;;;3.50;;
4353;SDS011;11018;51.258;6.806;2023-02-28T15:21:12;5.68;;;4.85;;
4353;SDS011;11018;51.258;6.806;2023-02-28T15:23:42;4.35;;;3.88;;
4353;SDS011;11018;51.258;6.806;2023-02-28T15:26:15;3.85;;;3.40;;
4353;SDS011;11018;51.258;6.806;2023-02-28T15:28:43;7.40;;;4.32;;
4353;SDS011;11018;51.258;6.806;2023-02-28T15:31:26;4.55;;;3.42;;
4353;SDS011;11018;51.258;6.806;2023-02-28T15:33:58;9.55;;;4.22;;
4353;SDS011;11018;51.258;6.806;2023-02-28T15:36:29;6.13;;;4.03;;
4353;SDS011;11018;51.258;6.806;2023-02-28T15:39:02;3.92;;;3.50;;
4353;SDS011;11018;51.258;6.806;2023-02-28T15:41:42;5.80;;;3.80;;
4353;SDS011;11018;51.258;6.806;2023-02-28T15:44:23;5.70;;;3.80;;
4353;SDS011;11018;51.258;6.806;2023-02-28T15:49:28;4.90;;;3.90;;
4353;SDS011;11018;51.258;6.806;2023-02-28T15:51:57;6.30;;;4.07;;
4353;SDS011;11018;51.258;6.806;2023-02-28T15:54:34;6.90;;;3.80;;
4353;SDS011;11018;51.258;6.806;2023-02-28T15:57:04;4.72;;;3.60;;
4353;SDS011;11018;51.258;6.806;2023-02-28T15:59:34;4.78;;;3.95;;
4353;SDS011;11018;51.258;6.806;2023-02-28T16:02:02;8.57;;;3.50;;
4353;SDS011;11018;51.258;6.806;2023-02-28T16:07:56;4.70;;;4.00;;
4353;SDS011;11018;51.258;6.806;2023-02-28T16:10:42;5.85;;;4.13;;
4353;SDS011;11018;51.258;6.806;2023-02-28T16:13:08;10.00;;;4.00;;
4353;SDS011;11018;51.258;6.806;2023-02-28T16:15:41;5.88;;;4.80;;
4353;SDS011;11018;51.258;6.806;2023-02-28T16:18:08;8.57;;;4.60;;
4353;SDS011;11018;51.258;6.806;2023-02-28T16:20:36;6.68;;;4.78;;
4353;SDS011;11018;51.258;6.806;2023-02-28T16:23:03;7.03;;;4.37;;
4353;SDS011;11018;51.258;6.806;2023-02-28T16:25:36;6.70;;;4.60;;
4353;SDS011;11018;51.258;6.806;2023-02-28T16:28:04;7.97;;;4.65;;
4353;SDS011;11018;51.258;6.806;2023-02-28T16:30:40;4.78;;;4.15;;
4353;SDS011;11018;51.258;6.806;2023-02-28T16:33:07;6.88;;;4.30;;
4353;SDS011;11018;51.258;6.806;2023-02-28T16:35:33;6.50;;;4.20;;
4353;SDS011;11018;51.258;6.806;2023-02-28T16:37:58;12.15;;;5.80;;
4353;SDS011;11018;51.258;6.806;2023-02-28T16:40:25;6.70;;;4.25;;
4353;SDS011;11018;51.258;6.806;2023-02-28T16:42:54;8.73;;;4.82;;
4353;SDS011;11018;51.258;6.806;2023-02-28T16:45:27;9.60;;;4.57;;
4353;SDS011;11018;51.258;6.806;2023-02-28T16:47:54;7.63;;;5.33;;
4353;SDS011;11018;51.258;6.806;2023-02-28T16:50:21;6.32;;;5.00;;
4353;SDS011;11018;51.258;6.806;2023-02-28T16:52:48;8.57;;;4.95;;
4353;SDS011;11018;51.258;6.806;2023-02-28T16:55:17;7.03;;;4.57;;
4353;SDS011;11018;51.258;6.806;2023-02-28T16:57:43;5.60;;;4.60;;
4353;SDS011;11018;51.258;6.806;2023-02-28T17:00:13;8.60;;;4.53;;
4353;SDS011;11018;51.258;6.806;2023-02-28T17:02:38;7.95;;;5.53;;
4353;SDS011;11018;51.258;6.806;2023-02-28T17:05:04;10.73;;;4.57;;
4353;SDS011;11018;51.258;6.806;2023-02-28T17:07:31;7.35;;;4.80;;
4353;SDS011;11018;51.258;6.806;2023-02-28T17:09:57;7.85;;;5.22;;
4353;SDS011;11018;51.258;6.806;2023-02-28T17:12:24;10.13;;;4.93;;
4353;SDS011;11018;51.258;6.806;2023-02-28T17:14:49;6.18;;;4.70;;
4353;SDS011;11018;51.258;6.806;2023-02-28T17:17:16;6.32;;;4.70;;
4353;SDS011;11018;51.258;6.806;2023-02-28T17:19:43;6.90;;;4.63;;
4353;SDS011;11018;51.258;6.806;2023-02-28T17:22:09;6.72;;;4.60;;
4353;SDS011;11018;51.258;6.806;2023-02-28T17:24:35;5.72;;;4.47;;
4353;SDS011;11018;51.258;6.806;2023-02-28T17:27:00;6.40;;;4.83;;
4353;SDS011;11018;51.258;6.806;2023-02-28T17:29:26;6.13;;;4.60;;
4353;SDS011;11018;51.258;6.806;2023-02-28T17:31:52;6.28;;;4.97;;
4353;SDS011;11018;51.258;6.806;2023-02-28T17:34:17;5.73;;;4.70;;
4353;SDS011;11018;51.258;6.806;2023-02-28T17:36:45;7.93;;;5.00;;
4353;SDS011;11018;51.258;6.806;2023-02-28T17:39:12;8.52;;;5.15;;
4353;SDS011;11018;51.258;6.806;2023-02-28T17:41:42;8.55;;;5.00;;
4353;SDS011;11018;51.258;6.806;2023-02-28T17:44:08;7.35;;;4.30;;
4353;SDS011;11018;51.258;6.806;2023-02-28T17:46:34;7.20;;;5.20;;
4353;SDS011;11018;51.258;6.806;2023-02-28T17:49:00;8.25;;;5.28;;